Time;durP1;ratioP1;P1;durP2;ratioP2;P2;SDS_P1;SDS_P2;PMS_P1;PMS_P2;Temp;Humidity;BMP_temperature;BMP_pressure;BME280_temperature;BME280_humidity;BME280_pressure;Samples;Min_cycle;Max_cycle;Signal;HPM_P1;HPM_P2
2022/11/13 00:01:42;;;;;;;2.22;2.03;;;;;;;5.77;100.00;99702.34;4137405;28;20320;-45
2022/11/13 00:03:44;;;;;;;3.17;2.80;;;;;;;5.71;100.00;99698.53;4141882;28;20303;-46
2022/11/13 00:05:46;;;;;;;2.85;2.45;;;;;;;5.81;100.00;99696.38;4141354;28;20694;-45
2022/11/13 00:07:47;;;;;;;3.13;2.85;;;;;;;5.77;100.00;99692.31;4135812;28;20212;-46
2022/11/13 00:09:49;;;;;;;2.97;2.72;;;;;;;5.76;100.00;99693.34;4136567;28;20247;-46
2022/11/13 00:11:50;;;;;;;2.58;2.45;;;;;;;5.57;100.00;99687.69;4141140;28;20643;-45
2022/11/13 00:13:52;;;;;;;3.00;2.72;;;;;;;5.66;100.00;99691.97;4134331;28;20212;-46
2022/11/13 00:15:58;;;;;;;2.90;2.70;;;;;;;5.55;100.00;99684.34;4135712;28;20197;-46
2022/11/13 00:18:01;;;;;;;3.55;3.22;;;;;;;5.54;100.00;99679.91;4135953;28;20205;-45
2022/11/13 00:20:03;;;;;;;2.80;2.60;;;;;;;5.55;100.00;99678.91;4141879;28;20687;-45
2022/11/13 00:22:05;;;;;;;2.47;2.28;;;;;;;5.59;100.00;99677.47;4136597;28;20247;-46
2022/11/13 00:24:07;;;;;;;2.65;2.45;;;;;;;5.67;100.00;99671.91;4139510;28;20211;-45
2022/11/13 00:26:13;;;;;;;3.08;2.78;;;;;;;5.63;100.00;99681.50;4136810;28;20222;-46
2022/11/13 00:28:14;;;;;;;2.70;2.50;;;;;;;5.62;100.00;99677.94;4140407;28;20731;-46
2022/11/13 00:30:16;;;;;;;3.50;3.22;;;;;;;5.30;100.00;99674.81;4135997;28;20237;-45
2022/11/13 00:32:20;;;;;;;3.17;2.97;;;;;;;5.09;100.00;99672.00;4139316;28;20229;-46
2022/11/13 00:34:21;;;;;;;3.95;3.65;;;;;;;4.98;100.00;99667.03;4122092;28;20232;-46
2022/11/13 00:36:43;;;;;;;3.45;3.15;;;;;;;4.96;100.00;99668.25;4136825;28;20499;-45
2022/11/13 00:38:45;;;;;;;3.13;2.88;;;;;;;4.95;100.00;99664.72;4136445;28;20286;-45
2022/11/13 00:40:47;;;;;;;2.85;2.65;;;;;;;4.81;100.00;99665.50;4135698;28;20296;-46
2022/11/13 00:42:48;;;;;;;3.10;2.80;;;;;;;4.89;100.00;99659.19;4135861;28;20620;-46
2022/11/13 00:44:50;;;;;;;5.15;3.63;;;;;;;5.08;100.00;99656.72;4137980;28;20228;-46
2022/11/13 00:46:51;;;;;;;3.20;3.00;;;;;;;4.84;100.00;99657.03;4151856;28;20209;-45
2022/11/13 00:48:53;;;;;;;3.58;3.28;;;;;;;5.00;100.00;99650.59;4140572;28;20227;-45
2022/11/13 00:50:55;;;;;;;3.08;2.78;;;;;;;4.56;100.00;99650.56;4135209;28;20202;-45
2022/11/13 00:52:56;;;;;;;3.67;3.38;;;;;;;4.61;100.00;99652.69;4131282;28;20229;-45
2022/11/13 00:54:58;;;;;;;3.60;3.30;;;;;;;4.59;100.00;99655.59;4137178;28;21882;-45
2022/11/13 00:57:00;;;;;;;4.07;3.67;;;;;;;4.57;100.00;99649.53;4131483;28;20231;-46
2022/11/13 00:59:01;;;;;;;3.70;3.40;;;;;;;4.60;100.00;99659.16;4137929;28;20210;-45
2022/11/13 01:01:10;;;;;;;8.38;3.40;;;;;;;4.81;100.00;99662.81;4140612;28;20208;-45
2022/11/13 01:03:13;;;;;;;4.53;4.13;;;;;;;4.80;100.00;99661.13;4131897;28;20292;-46
2022/11/13 01:05:15;;;;;;;3.42;3.13;;;;;;;4.86;100.00;99663.09;4140514;28;20260;-46
2022/11/13 01:07:19;;;;;;;6.80;2.70;;;;;;;5.11;100.00;99664.50;4151272;28;20589;-46
2022/11/13 01:09:21;;;;;;;3.90;3.50;;;;;;;5.07;100.00;99671.34;4151684;28;20216;-45
2022/11/13 01:11:25;;;;;;;2.45;2.25;;;;;;;5.08;100.00;99671.16;4150814;28;20230;-46
2022/11/13 01:13:27;;;;;;;3.17;2.90;;;;;;;5.09;100.00;99666.59;4139734;28;20233;-45
2022/11/13 01:15:29;;;;;;;4.43;4.03;;;;;;;5.02;100.00;99662.94;4140602;28;20216;-45
2022/11/13 01:17:30;;;;;;;3.47;3.17;;;;;;;5.21;100.00;99662.34;4139846;28;20215;-45
2022/11/13 01:19:32;;;;;;;3.67;3.38;;;;;;;5.22;100.00;99661.34;4133182;28;20210;-45
2022/11/13 01:21:34;;;;;;;2.72;2.53;;;;;;;5.25;100.00;99658.25;4132288;28;20213;-45
2022/11/13 01:23:36;;;;;;;3.30;3.10;;;;;;;5.33;100.00;99661.69;4136647;28;20232;-46
2022/11/13 01:25:37;;;;;;;2.95;2.75;;;;;;;5.06;100.00;99661.50;4132106;28;20215;-45
2022/11/13 01:27:39;;;;;;;3.80;3.50;;;;;;;5.00;100.00;99658.72;4129422;28;20676;-45
2022/11/13 01:29:41;;;;;;;3.03;2.83;;;;;;;4.86;100.00;99663.09;4133426;28;20296;-45
2022/11/13 01:31:42;;;;;;;2.67;2.47;;;;;;;4.92;100.00;99654.22;4139226;28;20661;-45
2022/11/13 01:33:45;;;;;;;3.20;3.00;;;;;;;4.78;100.00;99660.47;4150529;28;20225;-46
2022/11/13 01:35:47;;;;;;;3.13;2.85;;;;;;;4.63;100.00;99659.63;4136748;28;20288;-46
2022/11/13 01:37:48;;;;;;;2.90;2.70;;;;;;;4.81;100.00;99651.97;4151339;28;21059;-45
2022/11/13 01:39:50;;;;;;;2.88;2.58;;;;;;;4.70;100.00;99655.16;4152425;28;20233;-46
2022/11/13 01:41:52;;;;;;;3.45;3.15;;;;;;;4.77;100.00;99650.66;4138269;28;20201;-46
2022/11/13 01:43:54;;;;;;;3.30;3.00;;;;;;;4.77;100.00;99656.09;4137510;28;20205;-46
2022/11/13 01:45:59;;;;;;;2.88;2.67;;;;;;;4.90;100.00;99648.16;4135700;28;20749;-46
2022/11/13 01:48:00;;;;;;;3.72;3.42;;;;;;;4.94;100.00;99646.72;4141211;28;20209;-46
2022/11/13 01:50:02;;;;;;;3.20;2.90;;;;;;;4.92;100.00;99643.38;4122643;28;20960;-46
2022/11/13 01:52:09;;;;;;;3.45;3.15;;;;;;;4.88;100.00;99641.22;4123872;28;20205;-46
2022/11/13 01:54:15;;;;;;;3.05;2.85;;;;;;;4.91;100.00;99640.84;4134895;28;20217;-46
2022/11/13 01:56:17;;;;;;;2.95;2.75;;;;;;;4.96;100.00;99631.13;4141018;28;20643;-46
2022/11/13 01:58:19;;;;;;;2.72;2.53;;;;;;;4.97;100.00;99630.94;4154603;28;20208;-45
2022/11/13 02:00:20;;;;;;;3.00;2.80;;;;;;;4.82;100.00;99623.84;4125727;28;20216;-45
2022/11/13 02:02:22;;;;;;;2.88;2.67;;;;;;;5.02;100.00;99616.84;4141955;28;20225;-45
2022/11/13 02:04:24;;;;;;;3.78;3.28;;;;;;;4.99;100.00;99622.63;4131358;28;20252;-45
2022/11/13 02:06:29;;;;;;;3.97;3.60;;;;;;;4.99;100.00;99616.38;4140256;28;20285;-45
2022/11/13 02:08:31;;;;;;;3.25;3.05;;;;;;;5.07;100.00;99618.97;4154448;28;20236;-46
2022/11/13 02:10:33;;;;;;;3.53;3.22;;;;;;;4.74;100.00;99613.06;4154926;28;20207;-45
2022/11/13 02:12:39;;;;;;;3.28;2.97;;;;;;;4.86;100.00;99618.88;4139130;28;20590;-45
2022/11/13 02:14:46;;;;;;;2.80;2.60;;;;;;;4.90;100.00;99618.31;4145291;28;20589;-46
2022/11/13 02:16:50;;;;;;;3.15;2.85;;;;;;;4.94;100.00;99614.19;4140764;28;20201;-45
2022/11/13 02:18:52;;;;;;;3.95;3.65;;;;;;;4.80;100.00;99617.75;4153907;28;20213;-46
2022/11/13 02:21:19;;;;;;;5.85;3.15;;;;;;;4.83;100.00;99611.97;4124510;28;20220;-46
2022/11/13 02:23:24;;;;;;;3.35;3.05;;;;;;;4.80;100.00;99617.75;4135840;28;20235;-45
2022/11/13 02:25:31;;;;;;;3.85;3.03;;;;;;;4.60;100.00;99607.66;4154164;28;20346;-46
2022/11/13 02:27:40;;;;;;;3.17;2.88;;;;;;;4.55;100.00;99608.22;4139153;28;20291;-45
2022/11/13 02:29:42;;;;;;;3.08;2.88;;;;;;;4.57;100.00;99606.16;4140620;28;20212;-46
2022/11/13 02:31:43;;;;;;;3.88;3.63;;;;;;;4.65;100.00;99600.63;4152259;28;20209;-45
2022/11/13 02:33:45;;;;;;;3.78;3.47;;;;;;;4.76;100.00;99599.34;4134680;28;20795;-46
2022/11/13 02:35:47;;;;;;;4.20;3.90;;;;;;;4.73;100.00;99600.53;4141281;28;20224;-45
2022/11/13 02:37:48;;;;;;;3.42;3.22;;;;;;;4.56;100.00;99593.63;4126519;28;20208;-45
2022/11/13 02:39:50;;;;;;;4.45;4.07;;;;;;;4.83;100.00;99597.56;4140934;28;21065;-45
2022/11/13 02:41:52;;;;;;;4.30;3.40;;;;;;;4.75;100.00;99587.66;4153600;28;20670;-45
2022/11/13 02:43:53;;;;;;;5.38;4.15;;;;;;;4.79;100.00;99598.97;4150928;28;20223;-45
2022/11/13 02:45:55;;;;;;;2.97;2.70;;;;;;;4.40;100.00;99592.97;4139019;28;20225;-46
2022/11/13 02:47:59;;;;;;;3.67;3.38;;;;;;;4.38;100.00;99595.00;4138731;28;20381;-46
2022/11/13 02:50:01;;;;;;;3.50;3.20;;;;;;;4.59;100.00;99585.13;4138504;28;20249;-45
2022/11/13 02:52:03;;;;;;;3.50;3.30;;;;;;;4.44;100.00;99584.28;4138682;28;20306;-46
2022/11/13 02:54:05;;;;;;;3.40;3.10;;;;;;;4.35;100.00;99579.94;4149561;28;20210;-46
2022/11/13 02:56:06;;;;;;;2.83;2.63;;;;;;;4.46;100.00;99584.91;4137645;28;20205;-46
2022/11/13 02:58:08;;;;;;;2.67;2.47;;;;;;;4.57;100.00;99583.63;4142394;28;20205;-46
2022/11/13 03:00:12;;;;;;;3.92;3.63;;;;;;;4.47;100.00;99578.47;4138067;28;20220;-46
2022/11/13 03:02:14;;;;;;;3.10;2.90;;;;;;;4.59;100.00;99577.00;4152949;28;20225;-46
2022/11/13 03:04:16;;;;;;;4.00;3.60;;;;;;;4.69;100.00;99571.28;4141908;28;20687;-45
2022/11/13 03:06:18;;;;;;;3.38;3.08;;;;;;;4.54;100.00;99565.84;4138303;28;20312;-45
2022/11/13 03:08:21;;;;;;;3.70;3.40;;;;;;;4.61;100.00;99574.09;4125281;28;20242;-45
2022/11/13 03:10:22;;;;;;;3.55;3.22;;;;;;;4.59;100.00;99570.75;4145804;28;20206;-46
2022/11/13 03:12:24;;;;;;;35.97;5.25;;;;;;;4.68;100.00;99570.44;4124224;28;20322;-46
2022/11/13 03:14:26;;;;;;;3.53;3.22;;;;;;;4.69;100.00;99566.72;4141002;28;20212;-45
2022/11/13 03:16:27;;;;;;;3.47;3.17;;;;;;;4.79;100.00;99556.41;4142976;28;20613;-45
2022/11/13 03:18:29;;;;;;;3.75;3.45;;;;;;;4.62;100.00;99563.09;4137022;28;20209;-47
2022/11/13 03:20:31;;;;;;;2.88;2.63;;;;;;;4.67;100.00;99552.50;4151760;28;20212;-45
2022/11/13 03:22:33;;;;;;;3.55;3.28;;;;;;;4.74;100.00;99558.84;4138791;28;20317;-45
2022/11/13 03:24:35;;;;;;;4.53;4.18;;;;;;;4.83;100.00;99549.59;4153641;28;20272;-46
2022/11/13 03:26:36;;;;;;;3.30;3.05;;;;;;;4.74;100.00;99548.00;4150386;28;20233;-46
2022/11/13 03:28:38;;;;;;;2.70;2.42;;;;;;;4.78;100.00;99553.88;4136944;28;20218;-45
2022/11/13 03:30:40;;;;;;;4.13;3.72;;;;;;;4.82;100.00;99549.78;4143956;28;20221;-47
2022/11/13 03:32:41;;;;;;;5.47;5.05;;;;;;;4.67;100.00;99546.25;4137545;28;20478;-45
2022/11/13 03:34:43;;;;;;;3.97;3.67;;;;;;;4.70;100.00;99554.84;4140944;28;20205;-46
2022/11/13 03:36:45;;;;;;;3.75;3.42;;;;;;;4.85;100.00;99550.25;4139223;28;20204;-46
2022/11/13 03:38:46;;;;;;;3.88;3.50;;;;;;;4.71;100.00;99551.09;4131751;28;20220;-46
2022/11/13 03:40:48;;;;;;;4.55;4.15;;;;;;;4.82;100.00;99547.94;4151301;28;20196;-45
2022/11/13 03:42:50;;;;;;;4.07;3.67;;;;;;;4.81;100.00;99556.25;4135652;28;20317;-45
2022/11/13 03:44:52;;;;;;;6.93;3.42;;;;;;;4.82;100.00;99545.22;4132950;28;20205;-46
2022/11/13 03:46:53;;;;;;;5.13;4.63;;;;;;;4.75;100.00;99547.00;4134556;28;20265;-47
2022/11/13 03:48:55;;;;;;;4.22;3.85;;;;;;;4.83;100.00;99546.03;4141546;28;20215;-45
2022/11/13 03:50:57;;;;;;;5.40;4.95;;;;;;;4.85;100.00;99539.41;4140753;28;20212;-46
2022/11/13 03:52:58;;;;;;;5.35;4.85;;;;;;;4.82;100.00;99539.78;4141571;28;20295;-46
2022/11/13 03:55:00;;;;;;;4.72;4.32;;;;;;;4.90;100.00;99533.41;4134262;28;20312;-45
2022/11/13 03:57:02;;;;;;;5.88;5.38;;;;;;;4.97;100.00;99532.47;4140553;28;20201;-46
2022/11/13 03:59:03;;;;;;;4.78;4.32;;;;;;;4.82;100.00;99528.94;4142408;28;20710;-46
2022/11/13 04:01:05;;;;;;;4.85;4.43;;;;;;;4.88;100.00;99530.06;4151819;28;20219;-46
2022/11/13 04:03:07;;;;;;;4.80;4.40;;;;;;;4.82;100.00;99526.25;4141192;28;20320;-46
2022/11/13 04:05:09;;;;;;;4.63;4.32;;;;;;;4.82;100.00;99523.53;4142100;28;20213;-45
2022/11/13 04:07:11;;;;;;;4.57;4.28;;;;;;;4.63;100.00;99521.38;4142107;28;20239;-46
2022/11/13 04:09:13;;;;;;;4.82;4.43;;;;;;;4.73;100.00;99524.63;4139028;28;20209;-46
2022/11/13 04:11:14;;;;;;;7.65;5.00;;;;;;;4.56;100.00;99523.16;4138171;28;21373;-46
2022/11/13 04:13:16;;;;;;;4.65;4.25;;;;;;;4.71;100.00;99513.16;4142211;28;20225;-45
2022/11/13 04:15:18;;;;;;;3.88;3.50;;;;;;;4.65;100.00;99513.91;4140129;28;20232;-46
2022/11/13 04:17:19;;;;;;;4.30;4.00;;;;;;;4.70;100.00;99514.19;4128799;28;20257;-45
2022/11/13 04:19:21;;;;;;;4.10;3.78;;;;;;;4.67;100.00;99514.53;4137642;28;20677;-45
2022/11/13 04:21:23;;;;;;;4.13;3.83;;;;;;;4.62;100.00;99518.84;4135903;28;20719;-46
2022/11/13 04:23:24;;;;;;;3.72;3.50;;;;;;;4.65;100.00;99508.47;4136178;28;20329;-46
2022/11/13 04:25:26;;;;;;;4.53;4.18;;;;;;;4.68;100.00;99513.50;4135247;28;20213;-45
2022/11/13 04:27:28;;;;;;;3.60;3.30;;;;;;;4.66;100.00;99512.88;4150535;28;20259;-45
2022/11/13 04:29:30;;;;;;;3.55;3.25;;;;;;;4.54;100.00;99508.13;4150719;28;20773;-46
2022/11/13 04:31:31;;;;;;;4.18;3.83;;;;;;;4.59;100.00;99506.53;4149067;28;20203;-45
2022/11/13 04:33:33;;;;;;;3.13;2.92;;;;;;;4.33;100.00;99506.16;4149062;28;20233;-45
2022/11/13 04:35:40;;;;;;;3.92;3.63;;;;;;;4.36;100.00;99505.78;4140492;28;20205;-45
2022/11/13 04:37:42;;;;;;;3.58;3.28;;;;;;;4.50;100.00;99502.25;4137167;28;20205;-45
2022/11/13 04:39:43;;;;;;;3.42;3.05;;;;;;;4.31;100.00;99500.09;4149333;28;20303;-45
2022/11/13 04:44:05;;;;;;;3.40;3.17;;;;;;;4.31;100.00;99500.09;4135361;28;20206;-46
2022/11/13 04:46:07;;;;;;;3.00;2.80;;;;;;;4.22;100.00;99498.50;4150558;28;20228;-45
2022/11/13 04:48:09;;;;;;;3.35;3.15;;;;;;;4.38;100.00;99495.59;4152197;28;20635;-45
2022/11/13 04:50:11;;;;;;;4.20;3.90;;;;;;;4.37;100.00;99488.50;4134836;28;20220;-45
2022/11/13 04:52:13;;;;;;;3.40;3.17;;;;;;;4.45;100.00;99493.81;4133167;28;20229;-45
2022/11/13 04:54:14;;;;;;;3.22;3.03;;;;;;;4.45;100.00;99491.09;4138662;28;20324;-45
2022/11/13 04:56:16;;;;;;;3.95;3.65;;;;;;;4.47;100.00;99490.94;4136982;28;20285;-45
2022/11/13 04:58:18;;;;;;;9.52;4.05;;;;;;;4.52;100.00;99494.75;4135353;28;20225;-45
2022/11/13 05:00:20;;;;;;;3.13;2.80;;;;;;;4.59;100.00;99484.84;4139918;28;20708;-46
2022/11/13 05:02:22;;;;;;;3.33;3.05;;;;;;;4.46;100.00;99484.66;4133969;28;20232;-45
2022/11/13 05:04:23;;;;;;;3.58;3.30;;;;;;;4.52;100.00;99486.63;4138609;28;20805;-46
2022/11/13 05:06:25;;;;;;;3.17;2.97;;;;;;;4.47;100.00;99497.16;4137644;28;20218;-46
2022/11/13 05:08:27;;;;;;;4.50;4.10;;;;;;;4.36;100.00;99489.53;4147985;28;20205;-46
2022/11/13 05:10:29;;;;;;;3.80;3.50;;;;;;;4.40;100.00;99485.41;4138500;28;20256;-45
2022/11/13 05:12:31;;;;;;;3.70;3.40;;;;;;;4.41;100.00;99481.66;4133250;28;20313;-45
2022/11/13 05:14:41;;;;;;;3.78;3.42;;;;;;;4.38;100.00;99487.47;4135746;28;20208;-46
2022/11/13 05:16:43;;;;;;;3.28;3.08;;;;;;;4.40;100.00;99484.59;4139487;28;20204;-45
2022/11/13 05:18:45;;;;;;;3.78;3.47;;;;;;;4.36;100.00;99488.69;4149759;28;20209;-46
2022/11/13 05:20:47;;;;;;;2.83;2.63;;;;;;;4.25;100.00;99476.44;4133286;28;20674;-46
2022/11/13 05:22:48;;;;;;;3.83;3.55;;;;;;;4.28;100.00;99481.47;4132742;28;20228;-45
2022/11/13 05:24:50;;;;;;;3.40;3.10;;;;;;;4.35;100.00;99471.56;4133318;28;20304;-45
2022/11/13 05:26:52;;;;;;;3.80;3.50;;;;;;;4.41;100.00;99470.81;4150043;28;20225;-45
2022/11/13 05:28:57;;;;;;;3.38;3.08;;;;;;;4.26;100.00;99477.31;4139212;28;20213;-45
2022/11/13 05:31:09;;;;;;;4.15;3.85;;;;;;;4.14;100.00;99468.78;4137563;28;21122;-45
2022/11/13 05:33:11;;;;;;;3.80;3.50;;;;;;;4.38;100.00;99467.66;4134364;28;20797;-45
2022/11/13 05:35:12;;;;;;;4.85;4.45;;;;;;;4.14;100.00;99473.38;4149901;28;20208;-45
2022/11/13 05:37:14;;;;;;;3.97;3.67;;;;;;;4.15;100.00;99465.03;4130825;28;20221;-46
2022/11/13 05:39:16;;;;;;;3.45;3.25;;;;;;;4.24;100.00;99469.34;4134063;28;20209;-45
2022/11/13 05:41:19;;;;;;;3.60;3.30;;;;;;;4.22;100.00;99471.41;4129399;28;20214;-44
2022/11/13 05:43:21;;;;;;;4.72;4.35;;;;;;;4.12;100.00;99462.72;4130439;28;20316;-44
2022/11/13 05:45:22;;;;;;;4.45;4.10;;;;;;;4.18;100.00;99459.25;4138730;28;20220;-45
2022/11/13 05:47:24;;;;;;;3.58;3.30;;;;;;;4.28;100.00;99459.81;4135210;28;20243;-45
2022/11/13 05:49:25;;;;;;;4.78;4.45;;;;;;;4.33;100.00;99456.56;4134238;28;20197;-45
2022/11/13 05:51:33;;;;;;;4.45;4.15;;;;;;;4.26;100.00;99451.03;4132606;28;20895;-46
2022/11/13 05:53:35;;;;;;;3.33;3.05;;;;;;;4.38;100.00;99452.25;4144202;28;20268;-45
2022/11/13 05:55:37;;;;;;;5.00;4.60;;;;;;;4.35;100.00;99441.78;4134810;28;20234;-45
2022/11/13 05:57:39;;;;;;;3.63;3.33;;;;;;;4.31;100.00;99454.03;4120815;28;20216;-45
2022/11/13 05:59:40;;;;;;;4.13;3.83;;;;;;;4.13;100.00;99442.72;4150727;28;20227;-46
2022/11/13 06:01:42;;;;;;;3.83;3.53;;;;;;;4.36;100.00;99443.47;4135857;28;20739;-45
2022/11/13 06:03:44;;;;;;;4.30;4.00;;;;;;;4.21;100.00;99439.09;4148847;28;20262;-45
2022/11/13 06:05:46;;;;;;;4.13;3.83;;;;;;;4.36;100.00;99443.47;4121493;28;20723;-46
2022/11/13 06:07:48;;;;;;;4.25;4.05;;;;;;;4.37;100.00;99447.88;4139457;28;20236;-46
2022/11/13 06:09:50;;;;;;;4.30;3.90;;;;;;;4.35;100.00;99452.59;4139264;28;20547;-45
2022/11/13 06:11:51;;;;;;;3.92;3.63;;;;;;;4.34;100.00;99441.97;4125126;28;20205;-46
2022/11/13 06:13:54;;;;;;;4.00;3.65;;;;;;;4.29;100.00;99439.84;4148724;28;20288;-46
2022/11/13 06:16:07;;;;;;;4.18;3.80;;;;;;;4.29;100.00;99439.00;4139067;28;20297;-45
2022/11/13 06:18:08;;;;;;;4.78;4.47;;;;;;;4.41;100.00;99432.88;4134883;28;20201;-45
2022/11/13 06:20:10;;;;;;;4.25;3.83;;;;;;;4.34;100.00;99436.56;4133057;28;20201;-45
2022/11/13 06:22:12;;;;;;;4.28;3.97;;;;;;;4.33;100.00;99430.28;4147826;28;20221;-45
2022/11/13 06:24:14;;;;;;;4.30;4.00;;;;;;;4.32;100.00;99438.59;4136878;28;20202;-45
2022/11/13 06:26:19;;;;;;;4.05;3.72;;;;;;;4.41;100.00;99429.38;4135000;28;20206;-45
2022/11/13 06:28:20;;;;;;;4.05;3.63;;;;;;;4.39;100.00;99434.97;4137325;28;20205;-45
2022/11/13 06:30:22;;;;;;;4.38;3.83;;;;;;;4.38;100.00;99433.28;4132391;28;20618;-46
2022/11/13 06:32:24;;;;;;;4.72;4.32;;;;;;;4.38;100.00;99422.44;4133049;28;20321;-46
2022/11/13 06:34:25;;;;;;;5.07;4.60;;;;;;;4.40;100.00;99425.81;4136616;28;20219;-45
2022/11/13 06:36:30;;;;;;;4.85;4.45;;;;;;;4.42;100.00;99423.75;4154083;28;20208;-46
2022/11/13 06:38:33;;;;;;;4.70;4.30;;;;;;;4.34;100.00;99426.56;4153146;28;20211;-46
2022/11/13 06:40:37;;;;;;;4.45;4.07;;;;;;;4.27;100.00;99417.50;4141187;28;20209;-45
2022/11/13 06:42:39;;;;;;;3.85;3.53;;;;;;;4.38;100.00;99419.75;4133671;28;20732;-45
2022/11/13 06:44:40;;;;;;;3.92;3.63;;;;;;;4.39;100.00;99409.75;4136540;28;20206;-45
2022/11/13 06:46:42;;;;;;;3.85;3.55;;;;;;;4.31;100.00;99421.53;4141727;28;20221;-47
2022/11/13 06:48:43;;;;;;;5.18;3.75;;;;;;;4.34;100.00;99426.56;4130249;28;20745;-45
2022/11/13 06:50:45;;;;;;;4.43;3.97;;;;;;;4.22;100.00;99419.94;4125533;28;20722;-45
2022/11/13 06:52:49;;;;;;;4.57;4.18;;;;;;;4.21;100.00;99415.53;4137261;28;20284;-45
2022/11/13 06:54:50;;;;;;;5.45;4.10;;;;;;;4.17;100.00;99408.84;4141268;28;20240;-46
2022/11/13 06:56:52;;;;;;;4.25;3.95;;;;;;;4.23;100.00;99408.09;4139862;28;20707;-45
2022/11/13 06:58:55;;;;;;;4.32;3.92;;;;;;;4.23;100.00;99408.09;4139468;28;20207;-46
2022/11/13 07:00:56;;;;;;;5.05;4.63;;;;;;;4.29;100.00;99409.19;4132727;28;20237;-46
2022/11/13 07:02:58;;;;;;;4.80;4.00;;;;;;;4.31;100.00;99407.97;4138804;28;20967;-45
2022/11/13 07:05:00;;;;;;;4.95;4.55;;;;;;;4.29;100.00;99401.91;4137460;28;20237;-45
2022/11/13 07:07:03;;;;;;;3.90;3.60;;;;;;;4.32;100.00;99396.09;4153026;28;20228;-45
2022/11/13 07:09:05;;;;;;;8.02;3.38;;;;;;;4.30;100.00;99402.75;4138191;28;20205;-46
2022/11/13 07:11:09;;;;;;;4.43;4.05;;;;;;;4.31;100.00;99405.28;4129341;28;20202;-46
2022/11/13 07:13:11;;;;;;;5.85;5.35;;;;;;;4.19;100.00;99400.53;4136684;28;20324;-46
2022/11/13 07:15:15;;;;;;;4.90;4.43;;;;;;;4.30;100.00;99408.16;4139846;28;20267;-45
2022/11/13 07:17:16;;;;;;;5.53;5.05;;;;;;;4.15;100.00;99400.03;4140577;28;20207;-46
2022/11/13 07:19:18;;;;;;;6.10;5.25;;;;;;;4.25;100.00;99395.19;4137020;28;20289;-45
2022/11/13 07:21:21;;;;;;;5.40;4.90;;;;;;;4.39;100.00;99397.03;4139177;28;20363;-46
2022/11/13 07:23:23;;;;;;;5.32;4.82;;;;;;;4.31;100.00;99399.84;4140427;28;20272;-45
2022/11/13 07:25:25;;;;;;;6.13;5.53;;;;;;;4.38;100.00;99405.34;4136204;28;20531;-46
2022/11/13 07:27:27;;;;;;;5.70;5.13;;;;;;;4.39;100.00;99402.44;4138698;28;20227;-45
2022/11/13 07:29:29;;;;;;;4.40;4.00;;;;;;;4.32;100.00;99404.22;4150015;28;20209;-45
2022/11/13 07:31:31;;;;;;;5.88;5.15;;;;;;;4.44;100.00;99397.31;4123315;28;20297;-45
2022/11/13 07:33:33;;;;;;;5.25;4.78;;;;;;;4.38;100.00;99400.78;4133825;28;20730;-45
2022/11/13 07:35:34;;;;;;;4.72;4.32;;;;;;;4.41;100.00;99389.53;4152694;28;20208;-46
2022/11/13 07:37:36;;;;;;;6.70;5.90;;;;;;;4.43;100.00;99392.94;4141611;28;20232;-46
2022/11/13 07:39:38;;;;;;;4.65;4.32;;;;;;;4.49;100.00;99386.75;4142291;28;20300;-46
2022/11/13 07:41:39;;;;;;;5.78;5.32;;;;;;;4.38;100.00;99395.34;4152354;28;20996;-46
2022/11/13 07:43:41;;;;;;;5.53;5.03;;;;;;;4.51;100.00;99391.97;4141086;28;20690;-45
2022/11/13 07:45:43;;;;;;;5.50;5.00;;;;;;;4.34;100.00;99387.81;4139550;28;20205;-45
2022/11/13 07:47:44;;;;;;;5.78;5.25;;;;;;;4.34;100.00;99393.22;4151339;28;20677;-45
2022/11/13 07:49:46;;;;;;;5.88;5.35;;;;;;;4.37;100.00;99390.13;4124686;28;20297;-46
2022/11/13 07:51:48;;;;;;;5.90;5.30;;;;;;;4.39;100.00;99393.50;4136567;28;20209;-46
2022/11/13 07:53:49;;;;;;;5.80;5.05;;;;;;;4.47;100.00;99386.06;4134882;28;20233;-46
2022/11/13 07:55:51;;;;;;;6.35;5.63;;;;;;;4.44;100.00;99388.31;4136434;28;20222;-45
2022/11/13 07:57:57;;;;;;;5.93;5.00;;;;;;;4.51;100.00;99389.25;4151427;28;20205;-46
2022/11/13 07:59:59;;;;;;;7.43;6.72;;;;;;;4.49;100.00;99384.03;4139809;28;20225;-46
2022/11/13 08:02:00;;;;;;;7.13;5.32;;;;;;;4.50;100.00;99393.00;4139332;28;20245;-46
2022/11/13 08:04:02;;;;;;;6.38;5.95;;;;;;;4.65;100.00;99386.50;4135408;28;20300;-46
2022/11/13 08:06:06;;;;;;;6.45;5.85;;;;;;;4.54;100.00;99380.75;4137222;28;20223;-45
2022/11/13 08:08:11;;;;;;;6.63;6.07;;;;;;;4.55;100.00;99380.56;4135801;28;20336;-46
2022/11/13 08:10:13;;;;;;;6.60;6.03;;;;;;;4.75;100.00;99376.22;4139867;28;20284;-45
2022/11/13 08:12:14;;;;;;;7.22;6.60;;;;;;;4.75;100.00;99378.91;4140651;28;20229;-46
2022/11/13 08:14:16;;;;;;;6.22;5.63;;;;;;;4.76;100.00;99383.31;4134838;28;20218;-45
2022/11/13 08:16:18;;;;;;;6.80;6.18;;;;;;;4.82;100.00;99370.84;4136082;28;20213;-45
2022/11/13 08:18:20;;;;;;;6.18;5.57;;;;;;;4.83;100.00;99373.38;4138559;28;21885;-46
2022/11/13 08:20:22;;;;;;;7.18;6.50;;;;;;;4.93;100.00;99368.44;4139691;28;20333;-45
2022/11/13 08:22:24;;;;;;;7.18;6.47;;;;;;;4.89;100.00;99377.16;4133296;28;20231;-45
2022/11/13 08:24:25;;;;;;;6.78;6.05;;;;;;;4.80;100.00;99375.63;4134261;28;20289;-45
2022/11/13 08:26:27;;;;;;;7.30;6.60;;;;;;;4.98;100.00;99376.84;4135649;28;20209;-45
2022/11/13 08:28:29;;;;;;;6.32;5.75;;;;;;;4.79;100.00;99372.06;4133764;28;20236;-45
2022/11/13 08:30:31;;;;;;;6.88;6.32;;;;;;;5.01;100.00;99365.59;4152124;28;20263;-46
2022/11/13 08:32:33;;;;;;;6.40;5.80;;;;;;;4.87;100.00;99362.97;4150184;28;20220;-46
2022/11/13 08:34:36;;;;;;;7.65;6.88;;;;;;;5.00;100.00;99363.94;4130451;28;20284;-45
2022/11/13 08:36:38;;;;;;;5.75;5.22;;;;;;;5.03;100.00;99362.72;4136190;28;20213;-46
2022/11/13 08:38:39;;;;;;;6.68;6.07;;;;;;;4.95;100.00;99366.41;4149566;28;20951;-45
2022/11/13 08:40:41;;;;;;;6.03;5.40;;;;;;;5.01;100.00;99364.78;4133292;28;20213;-45
2022/11/13 08:42:43;;;;;;;9.27;6.63;;;;;;;4.99;100.00;99362.25;4139259;28;20244;-46
2022/11/13 08:44:44;;;;;;;6.80;6.20;;;;;;;4.99;100.00;99356.84;4132041;28;20212;-45
2022/11/13 08:46:46;;;;;;;7.00;6.50;;;;;;;4.90;100.00;99352.59;4156125;28;20340;-45
2022/11/13 08:48:48;;;;;;;7.13;6.57;;;;;;;4.96;100.00;99349.09;4136027;28;20320;-46
2022/11/13 08:50:51;;;;;;;6.88;6.28;;;;;;;5.12;100.00;99356.94;4135323;28;20459;-45
2022/11/13 08:52:57;;;;;;;6.72;6.15;;;;;;;5.27;100.00;99355.00;4136682;28;20231;-45
2022/11/13 08:54:59;;;;;;;8.05;7.35;;;;;;;5.23;100.00;99354.53;4137399;28;20245;-45
2022/11/13 08:57:01;;;;;;;8.63;7.93;;;;;;;5.19;100.00;99352.44;4138456;28;20224;-45
2022/11/13 08:59:08;;;;;;;6.80;5.90;;;;;;;5.27;100.00;99349.56;4138133;28;20327;-46
2022/11/13 09:01:09;;;;;;;7.22;6.40;;;;;;;5.38;100.00;99340.91;4144955;28;20201;-45
2022/11/13 09:03:11;;;;;;;6.30;5.75;;;;;;;5.44;100.00;99342.84;4136217;28;20756;-46
2022/11/13 09:05:13;;;;;;;8.10;7.35;;;;;;;5.60;100.00;99350.66;4134003;28;20210;-46
2022/11/13 09:07:14;;;;;;;6.90;6.30;;;;;;;5.50;100.00;99350.19;4135180;28;20755;-45
2022/11/13 09:09:17;;;;;;;9.18;8.27;;;;;;;5.74;100.00;99347.00;4151348;28;20213;-46
2022/11/13 09:11:19;;;;;;;7.53;6.85;;;;;;;5.70;100.00;99348.44;4127601;28;20272;-46
2022/11/13 09:13:21;;;;;;;7.78;7.07;;;;;;;6.14;100.00;99336.19;4149199;28;20228;-46
2022/11/13 09:15:22;;;;;;;9.10;8.15;;;;;;;6.40;100.00;99338.19;4151481;28;20212;-45
2022/11/13 09:17:25;;;;;;;6.95;6.15;;;;;;;6.66;100.00;99339.13;4120400;28;20214;-45
2022/11/13 09:19:27;;;;;;;6.40;5.80;;;;;;;6.91;100.00;99331.22;4149998;28;20205;-46
2022/11/13 09:21:29;;;;;;;6.50;5.90;;;;;;;7.18;100.00;99330.19;4137490;28;20193;-45
2022/11/13 09:23:30;;;;;;;7.13;6.53;;;;;;;7.76;100.00;99326.59;4134300;28;20234;-46
2022/11/13 09:25:35;;;;;;;5.95;5.43;;;;;;;7.98;100.00;99317.13;4132936;28;20699;-46
2022/11/13 09:27:38;;;;;;;6.95;6.45;;;;;;;8.23;100.00;99329.03;4127949;28;20217;-46
2022/11/13 09:29:40;;;;;;;7.88;7.25;;;;;;;9.24;100.00;99318.78;4148868;28;22616;-46
2022/11/13 09:31:41;;;;;;;6.45;5.93;;;;;;;9.79;100.00;99317.03;4135409;28;20300;-45
2022/11/13 09:33:43;;;;;;;4.78;4.28;;;;;;;10.00;99.09;99317.44;4138642;28;20229;-46
2022/11/13 09:35:45;;;;;;;5.25;4.85;;;;;;;10.35;98.28;99317.69;4134628;28;20263;-46
2022/11/13 09:37:51;;;;;;;4.57;4.25;;;;;;;10.55;98.12;99323.75;4135393;28;20205;-46
2022/11/13 09:39:52;;;;;;;4.57;4.20;;;;;;;10.88;97.07;99320.34;4134629;28;20581;-46